sensor_id;sensor_type;location;lat;lon;timestamp;P1;durP1;ratioP1;P2;durP2;ratioP2
52854;SDS011;38719;51.418;7.286;2022-10-16T00:01:19;4.38;;;2.85;;
52854;SDS011;38719;51.418;7.286;2022-10-16T00:03:50;4.25;;;2.30;;
52854;SDS011;38719;51.418;7.286;2022-10-16T00:06:19;3.80;;;2.63;;
52854;SDS011;38719;51.418;7.286;2022-10-16T00:08:48;3.45;;;2.40;;
52854;SDS011;38719;51.418;7.286;2022-10-16T00:11:17;4.13;;;2.10;;
52854;SDS011;38719;51.418;7.286;2022-10-16T00:13:47;4.82;;;2.45;;
52854;SDS011;38719;51.418;7.286;2022-10-16T00:16:16;4.35;;;2.40;;
52854;SDS011;38719;51.418;7.286;2022-10-16T00:18:45;5.38;;;2.25;;
52854;SDS011;38719;51.418;7.286;2022-10-16T00:21:14;8.95;;;2.78;;
52854;SDS011;38719;51.418;7.286;2022-10-16T00:23:44;4.15;;;2.50;;
52854;SDS011;38719;51.418;7.286;2022-10-16T00:26:12;3.85;;;2.30;;
52854;SDS011;38719;51.418;7.286;2022-10-16T00:28:45;5.05;;;2.40;;
52854;SDS011;38719;51.418;7.286;2022-10-16T00:31:13;2.42;;;2.17;;
52854;SDS011;38719;51.418;7.286;2022-10-16T00:33:41;5.50;;;2.33;;
52854;SDS011;38719;51.418;7.286;2022-10-16T00:36:10;5.75;;;2.33;;
52854;SDS011;38719;51.418;7.286;2022-10-16T00:38:41;4.00;;;2.30;;
52854;SDS011;38719;51.418;7.286;2022-10-16T00:41:09;3.28;;;2.00;;
52854;SDS011;38719;51.418;7.286;2022-10-16T00:43:40;4.65;;;2.25;;
52854;SDS011;38719;51.418;7.286;2022-10-16T00:46:11;6.63;;;2.25;;
52854;SDS011;38719;51.418;7.286;2022-10-16T00:48:44;3.42;;;2.30;;
52854;SDS011;38719;51.418;7.286;2022-10-16T00:51:15;2.33;;;2.10;;
52854;SDS011;38719;51.418;7.286;2022-10-16T00:53:47;5.35;;;2.17;;
52854;SDS011;38719;51.418;7.286;2022-10-16T00:56:15;4.15;;;2.33;;
52854;SDS011;38719;51.418;7.286;2022-10-16T00:58:43;3.60;;;2.42;;
52854;SDS011;38719;51.418;7.286;2022-10-16T01:01:11;4.20;;;2.42;;
52854;SDS011;38719;51.418;7.286;2022-10-16T01:03:39;3.03;;;2.38;;
52854;SDS011;38719;51.418;7.286;2022-10-16T01:06:09;6.70;;;2.17;;
52854;SDS011;38719;51.418;7.286;2022-10-16T01:08:52;4.03;;;2.17;;
52854;SDS011;38719;51.418;7.286;2022-10-16T01:11:27;4.90;;;3.08;;
52854;SDS011;38719;51.418;7.286;2022-10-16T01:14:02;3.67;;;2.38;;
52854;SDS011;38719;51.418;7.286;2022-10-16T01:16:38;6.15;;;2.72;;
52854;SDS011;38719;51.418;7.286;2022-10-16T01:19:12;5.47;;;2.17;;
52854;SDS011;38719;51.418;7.286;2022-10-16T01:21:44;4.75;;;2.30;;
52854;SDS011;38719;51.418;7.286;2022-10-16T01:24:20;2.58;;;2.20;;
52854;SDS011;38719;51.418;7.286;2022-10-16T01:27:04;4.70;;;2.47;;
52854;SDS011;38719;51.418;7.286;2022-10-16T01:29:34;4.28;;;2.40;;
52854;SDS011;38719;51.418;7.286;2022-10-16T01:32:09;2.88;;;2.15;;
52854;SDS011;38719;51.418;7.286;2022-10-16T01:34:44;3.45;;;2.50;;
52854;SDS011;38719;51.418;7.286;2022-10-16T01:37:20;3.95;;;2.25;;
52854;SDS011;38719;51.418;7.286;2022-10-16T01:39:55;3.60;;;2.28;;
52854;SDS011;38719;51.418;7.286;2022-10-16T01:42:30;4.45;;;2.15;;
52854;SDS011;38719;51.418;7.286;2022-10-16T01:45:02;2.70;;;2.10;;
52854;SDS011;38719;51.418;7.286;2022-10-16T01:47:34;3.80;;;2.10;;
52854;SDS011;38719;51.418;7.286;2022-10-16T01:50:03;4.18;;;2.10;;
52854;SDS011;38719;51.418;7.286;2022-10-16T01:52:34;3.15;;;1.98;;
52854;SDS011;38719;51.418;7.286;2022-10-16T01:55:05;2.60;;;2.05;;
52854;SDS011;38719;51.418;7.286;2022-10-16T01:57:37;3.28;;;2.28;;
52854;SDS011;38719;51.418;7.286;2022-10-16T02:00:09;2.30;;;2.10;;
52854;SDS011;38719;51.418;7.286;2022-10-16T02:02:39;7.70;;;2.20;;
52854;SDS011;38719;51.418;7.286;2022-10-16T02:05:10;6.78;;;2.20;;
52854;SDS011;38719;51.418;7.286;2022-10-16T02:10:11;4.15;;;2.10;;
52854;SDS011;38719;51.418;7.286;2022-10-16T02:12:40;4.93;;;2.05;;
52854;SDS011;38719;51.418;7.286;2022-10-16T02:15:12;2.38;;;2.17;;
52854;SDS011;38719;51.418;7.286;2022-10-16T02:17:40;3.17;;;2.30;;
52854;SDS011;38719;51.418;7.286;2022-10-16T02:20:08;3.50;;;2.25;;
52854;SDS011;38719;51.418;7.286;2022-10-16T02:22:38;6.07;;;2.20;;
52854;SDS011;38719;51.418;7.286;2022-10-16T02:25:09;3.33;;;1.90;;
52854;SDS011;38719;51.418;7.286;2022-10-16T02:27:42;2.03;;;1.92;;
52854;SDS011;38719;51.418;7.286;2022-10-16T02:30:18;3.20;;;1.92;;
52854;SDS011;38719;51.418;7.286;2022-10-16T02:32:50;2.53;;;1.83;;
52854;SDS011;38719;51.418;7.286;2022-10-16T02:35:20;2.60;;;2.00;;
52854;SDS011;38719;51.418;7.286;2022-10-16T02:37:50;2.08;;;1.70;;
52854;SDS011;38719;51.418;7.286;2022-10-16T02:40:19;3.08;;;1.73;;
52854;SDS011;38719;51.418;7.286;2022-10-16T02:42:52;2.20;;;2.00;;
52854;SDS011;38719;51.418;7.286;2022-10-16T02:45:20;2.45;;;2.20;;
52854;SDS011;38719;51.418;7.286;2022-10-16T02:47:48;2.28;;;1.85;;
52854;SDS011;38719;51.418;7.286;2022-10-16T02:50:16;2.55;;;2.35;;
52854;SDS011;38719;51.418;7.286;2022-10-16T02:52:44;2.10;;;1.90;;
52854;SDS011;38719;51.418;7.286;2022-10-16T02:55:11;2.10;;;1.92;;
52854;SDS011;38719;51.418;7.286;2022-10-16T02:57:39;2.38;;;2.00;;
52854;SDS011;38719;51.418;7.286;2022-10-16T03:00:09;2.00;;;1.90;;
52854;SDS011;38719;51.418;7.286;2022-10-16T03:02:39;2.10;;;1.90;;
52854;SDS011;38719;51.418;7.286;2022-10-16T03:05:07;2.47;;;1.98;;
52854;SDS011;38719;51.418;7.286;2022-10-16T03:07:36;2.10;;;1.83;;
52854;SDS011;38719;51.418;7.286;2022-10-16T03:10:04;2.45;;;2.13;;
52854;SDS011;38719;51.418;7.286;2022-10-16T03:12:32;6.38;;;2.00;;
52854;SDS011;38719;51.418;7.286;2022-10-16T03:14:59;3.20;;;2.10;;
52854;SDS011;38719;51.418;7.286;2022-10-16T03:17:29;5.63;;;2.10;;
52854;SDS011;38719;51.418;7.286;2022-10-16T03:19:56;2.10;;;1.90;;
52854;SDS011;38719;51.418;7.286;2022-10-16T03:22:24;2.67;;;2.42;;
52854;SDS011;38719;51.418;7.286;2022-10-16T03:24:51;3.38;;;1.95;;
52854;SDS011;38719;51.418;7.286;2022-10-16T03:27:19;2.70;;;2.00;;
52854;SDS011;38719;51.418;7.286;2022-10-16T03:29:47;2.83;;;2.00;;
52854;SDS011;38719;51.418;7.286;2022-10-16T03:32:14;1.80;;;1.70;;
52854;SDS011;38719;51.418;7.286;2022-10-16T03:34:43;1.70;;;1.60;;
52854;SDS011;38719;51.418;7.286;2022-10-16T03:37:11;2.47;;;2.00;;
52854;SDS011;38719;51.418;7.286;2022-10-16T03:39:38;2.80;;;1.70;;
52854;SDS011;38719;51.418;7.286;2022-10-16T03:42:06;2.63;;;1.77;;
52854;SDS011;38719;51.418;7.286;2022-10-16T03:44:33;2.00;;;1.90;;
52854;SDS011;38719;51.418;7.286;2022-10-16T03:47:01;2.03;;;1.80;;
52854;SDS011;38719;51.418;7.286;2022-10-16T03:49:28;3.22;;;2.05;;
52854;SDS011;38719;51.418;7.286;2022-10-16T03:51:57;2.53;;;1.80;;
52854;SDS011;38719;51.418;7.286;2022-10-16T03:54:25;4.65;;;2.10;;
52854;SDS011;38719;51.418;7.286;2022-10-16T03:56:52;2.97;;;1.70;;
52854;SDS011;38719;51.418;7.286;2022-10-16T03:59:20;2.53;;;1.90;;
52854;SDS011;38719;51.418;7.286;2022-10-16T04:01:47;2.67;;;1.90;;
52854;SDS011;38719;51.418;7.286;2022-10-16T04:04:15;4.00;;;1.50;;
52854;SDS011;38719;51.418;7.286;2022-10-16T04:06:42;4.03;;;1.63;;
52854;SDS011;38719;51.418;7.286;2022-10-16T04:09:11;2.10;;;1.88;;
52854;SDS011;38719;51.418;7.286;2022-10-16T04:11:39;1.83;;;1.67;;
52854;SDS011;38719;51.418;7.286;2022-10-16T04:14:06;1.70;;;1.60;;
52854;SDS011;38719;51.418;7.286;2022-10-16T04:16:34;1.70;;;1.60;;
52854;SDS011;38719;51.418;7.286;2022-10-16T04:19:02;3.38;;;1.73;;
52854;SDS011;38719;51.418;7.286;2022-10-16T04:21:29;4.97;;;1.73;;
52854;SDS011;38719;51.418;7.286;2022-10-16T04:23:57;4.85;;;1.63;;
52854;SDS011;38719;51.418;7.286;2022-10-16T04:26:26;2.45;;;1.75;;
52854;SDS011;38719;51.418;7.286;2022-10-16T04:28:53;6.05;;;1.77;;
52854;SDS011;38719;51.418;7.286;2022-10-16T04:31:21;1.65;;;1.50;;
52854;SDS011;38719;51.418;7.286;2022-10-16T04:33:49;4.30;;;1.67;;
52854;SDS011;38719;51.418;7.286;2022-10-16T04:36:16;1.90;;;1.77;;
52854;SDS011;38719;51.418;7.286;2022-10-16T04:38:44;2.10;;;1.90;;
52854;SDS011;38719;51.418;7.286;2022-10-16T04:41:11;2.80;;;1.70;;
52854;SDS011;38719;51.418;7.286;2022-10-16T04:43:40;2.50;;;1.70;;
52854;SDS011;38719;51.418;7.286;2022-10-16T04:46:08;5.13;;;1.80;;
52854;SDS011;38719;51.418;7.286;2022-10-16T04:48:36;2.40;;;1.70;;
52854;SDS011;38719;51.418;7.286;2022-10-16T04:51:04;1.67;;;1.58;;
52854;SDS011;38719;51.418;7.286;2022-10-16T04:53:31;1.85;;;1.70;;
52854;SDS011;38719;51.418;7.286;2022-10-16T04:55:59;1.88;;;1.77;;
52854;SDS011;38719;51.418;7.286;2022-10-16T04:58:27;2.78;;;1.75;;
52854;SDS011;38719;51.418;7.286;2022-10-16T05:00:55;2.85;;;1.80;;
52854;SDS011;38719;51.418;7.286;2022-10-16T05:03:25;3.40;;;2.00;;
52854;SDS011;38719;51.418;7.286;2022-10-16T05:05:53;1.73;;;1.63;;
52854;SDS011;38719;51.418;7.286;2022-10-16T05:08:20;2.33;;;1.70;;
52854;SDS011;38719;51.418;7.286;2022-10-16T05:10:48;2.00;;;1.80;;
52854;SDS011;38719;51.418;7.286;2022-10-16T05:13:15;1.67;;;1.58;;
52854;SDS011;38719;51.418;7.286;2022-10-16T05:15:51;3.17;;;1.65;;
52854;SDS011;38719;51.418;7.286;2022-10-16T05:18:20;3.75;;;2.05;;
52854;SDS011;38719;51.418;7.286;2022-10-16T05:20:48;1.85;;;1.75;;
52854;SDS011;38719;51.418;7.286;2022-10-16T05:23:15;2.35;;;1.90;;
52854;SDS011;38719;51.418;7.286;2022-10-16T05:25:43;3.00;;;2.08;;
52854;SDS011;38719;51.418;7.286;2022-10-16T05:28:19;2.90;;;1.88;;
52854;SDS011;38719;51.418;7.286;2022-10-16T05:30:47;1.85;;;1.70;;
52854;SDS011;38719;51.418;7.286;2022-10-16T05:33:14;1.98;;;1.85;;
52854;SDS011;38719;51.418;7.286;2022-10-16T05:35:43;2.47;;;1.90;;
52854;SDS011;38719;51.418;7.286;2022-10-16T05:38:11;1.88;;;1.67;;
52854;SDS011;38719;51.418;7.286;2022-10-16T05:40:38;2.72;;;2.00;;
52854;SDS011;38719;51.418;7.286;2022-10-16T05:43:06;2.28;;;1.80;;
52854;SDS011;38719;51.418;7.286;2022-10-16T05:52:32;4.20;;;1.88;;
52854;SDS011;38719;51.418;7.286;2022-10-16T05:55:22;1.90;;;1.80;;
52854;SDS011;38719;51.418;7.286;2022-10-16T06:02:04;1.88;;;1.77;;
52854;SDS011;38719;51.418;7.286;2022-10-16T06:04:31;5.38;;;2.00;;
52854;SDS011;38719;51.418;7.286;2022-10-16T06:06:59;2.30;;;2.05;;
52854;SDS011;38719;51.418;7.286;2022-10-16T06:09:28;2.63;;;1.92;;
52854;SDS011;38719;51.418;7.286;2022-10-16T06:11:56;4.20;;;2.00;;
52854;SDS011;38719;51.418;7.286;2022-10-16T06:14:24;2.10;;;1.90;;
52854;SDS011;38719;51.418;7.286;2022-10-16T06:16:52;2.17;;;1.83;;
52854;SDS011;38719;51.418;7.286;2022-10-16T06:19:19;2.20;;;2.00;;
52854;SDS011;38719;51.418;7.286;2022-10-16T06:21:47;4.43;;;2.05;;
52854;SDS011;38719;51.418;7.286;2022-10-16T06:24:14;2.35;;;1.90;;
52854;SDS011;38719;51.418;7.286;2022-10-16T06:26:43;4.05;;;2.15;;
52854;SDS011;38719;51.418;7.286;2022-10-16T06:29:25;2.53;;;2.05;;
52854;SDS011;38719;51.418;7.286;2022-10-16T06:31:55;3.83;;;1.90;;
52854;SDS011;38719;51.418;7.286;2022-10-16T06:34:23;1.92;;;1.77;;
52854;SDS011;38719;51.418;7.286;2022-10-16T06:36:51;1.98;;;1.88;;
52854;SDS011;38719;51.418;7.286;2022-10-16T06:39:18;2.10;;;1.90;;
52854;SDS011;38719;51.418;7.286;2022-10-16T06:41:47;1.80;;;1.70;;
52854;SDS011;38719;51.418;7.286;2022-10-16T06:44:15;7.78;;;2.17;;
52854;SDS011;38719;51.418;7.286;2022-10-16T06:46:42;2.45;;;2.00;;
52854;SDS011;38719;51.418;7.286;2022-10-16T06:49:10;3.58;;;1.75;;
52854;SDS011;38719;51.418;7.286;2022-10-16T06:51:37;3.58;;;2.05;;
52854;SDS011;38719;51.418;7.286;2022-10-16T06:54:08;4.13;;;2.10;;
52854;SDS011;38719;51.418;7.286;2022-10-16T06:56:36;3.17;;;1.80;;
52854;SDS011;38719;51.418;7.286;2022-10-16T06:59:05;5.05;;;2.03;;
52854;SDS011;38719;51.418;7.286;2022-10-16T07:01:33;3.70;;;1.70;;
52854;SDS011;38719;51.418;7.286;2022-10-16T07:04:00;1.90;;;1.80;;
52854;SDS011;38719;51.418;7.286;2022-10-16T07:06:30;2.20;;;2.00;;
52854;SDS011;38719;51.418;7.286;2022-10-16T07:09:01;5.75;;;2.38;;
52854;SDS011;38719;51.418;7.286;2022-10-16T07:11:30;4.63;;;1.90;;
52854;SDS011;38719;51.418;7.286;2022-10-16T07:13:58;2.10;;;1.90;;
52854;SDS011;38719;51.418;7.286;2022-10-16T07:16:28;3.15;;;2.15;;
52854;SDS011;38719;51.418;7.286;2022-10-16T07:18:57;2.42;;;2.20;;
52854;SDS011;38719;51.418;7.286;2022-10-16T07:21:27;2.00;;;1.90;;
52854;SDS011;38719;51.418;7.286;2022-10-16T07:23:56;5.50;;;3.33;;
52854;SDS011;38719;51.418;7.286;2022-10-16T07:26:25;9.10;;;4.78;;
52854;SDS011;38719;51.418;7.286;2022-10-16T07:28:54;1.92;;;1.83;;
52854;SDS011;38719;51.418;7.286;2022-10-16T07:31:22;3.70;;;2.33;;
52854;SDS011;38719;51.418;7.286;2022-10-16T07:33:50;2.08;;;1.88;;
52854;SDS011;38719;51.418;7.286;2022-10-16T07:36:18;2.75;;;2.25;;
52854;SDS011;38719;51.418;7.286;2022-10-16T07:38:47;3.15;;;2.20;;
52854;SDS011;38719;51.418;7.286;2022-10-16T07:41:18;7.93;;;6.13;;
52854;SDS011;38719;51.418;7.286;2022-10-16T07:43:46;4.13;;;3.55;;
52854;SDS011;38719;51.418;7.286;2022-10-16T07:46:15;8.40;;;2.20;;
52854;SDS011;38719;51.418;7.286;2022-10-16T07:48:44;3.17;;;1.90;;
52854;SDS011;38719;51.418;7.286;2022-10-16T07:51:15;3.33;;;2.75;;
52854;SDS011;38719;51.418;7.286;2022-10-16T07:53:44;5.70;;;2.22;;
52854;SDS011;38719;51.418;7.286;2022-10-16T07:56:13;3.72;;;1.90;;
52854;SDS011;38719;51.418;7.286;2022-10-16T07:58:41;6.40;;;2.13;;
52854;SDS011;38719;51.418;7.286;2022-10-16T08:01:09;2.58;;;2.38;;
52854;SDS011;38719;51.418;7.286;2022-10-16T08:03:41;3.20;;;2.10;;
52854;SDS011;38719;51.418;7.286;2022-10-16T08:06:09;5.65;;;2.75;;
52854;SDS011;38719;51.418;7.286;2022-10-16T08:08:38;5.25;;;3.65;;
52854;SDS011;38719;51.418;7.286;2022-10-16T08:11:06;4.25;;;2.30;;
52854;SDS011;38719;51.418;7.286;2022-10-16T08:13:34;2.72;;;2.13;;
52854;SDS011;38719;51.418;7.286;2022-10-16T08:16:02;2.13;;;1.77;;
52854;SDS011;38719;51.418;7.286;2022-10-16T08:18:34;2.83;;;2.10;;
52854;SDS011;38719;51.418;7.286;2022-10-16T08:21:36;3.38;;;2.03;;
52854;SDS011;38719;51.418;7.286;2022-10-16T08:24:02;3.17;;;2.10;;
52854;SDS011;38719;51.418;7.286;2022-10-16T08:26:37;2.53;;;2.25;;
52854;SDS011;38719;51.418;7.286;2022-10-16T08:29:04;3.25;;;2.30;;
52854;SDS011;38719;51.418;7.286;2022-10-16T08:31:32;3.70;;;2.30;;
52854;SDS011;38719;51.418;7.286;2022-10-16T08:34:00;5.43;;;2.35;;
52854;SDS011;38719;51.418;7.286;2022-10-16T08:36:27;2.47;;;2.20;;
52854;SDS011;38719;51.418;7.286;2022-10-16T08:38:55;2.05;;;1.88;;
52854;SDS011;38719;51.418;7.286;2022-10-16T08:41:26;2.90;;;2.13;;
52854;SDS011;38719;51.418;7.286;2022-10-16T08:44:18;2.22;;;1.42;;
52854;SDS011;38719;51.418;7.286;2022-10-16T08:46:59;3.30;;;2.20;;
52854;SDS011;38719;51.418;7.286;2022-10-16T08:49:31;2.65;;;2.00;;
52854;SDS011;38719;51.418;7.286;2022-10-16T08:51:59;3.20;;;1.55;;
52854;SDS011;38719;51.418;7.286;2022-10-16T08:54:28;4.50;;;1.90;;
52854;SDS011;38719;51.418;7.286;2022-10-16T08:57:07;1.95;;;1.80;;
52854;SDS011;38719;51.418;7.286;2022-10-16T08:59:37;1.98;;;1.23;;
52854;SDS011;38719;51.418;7.286;2022-10-16T09:02:08;1.95;;;1.55;;
52854;SDS011;38719;51.418;7.286;2022-10-16T09:05:10;2.65;;;1.50;;
52854;SDS011;38719;51.418;7.286;2022-10-16T09:07:50;6.00;;;1.75;;
52854;SDS011;38719;51.418;7.286;2022-10-16T09:10:29;2.22;;;1.60;;
52854;SDS011;38719;51.418;7.286;2022-10-16T09:13:10;3.50;;;1.77;;
52854;SDS011;38719;51.418;7.286;2022-10-16T09:15:47;3.10;;;1.70;;
52854;SDS011;38719;51.418;7.286;2022-10-16T09:18:21;2.40;;;1.50;;
52854;SDS011;38719;51.418;7.286;2022-10-16T09:20:59;3.33;;;1.88;;
52854;SDS011;38719;51.418;7.286;2022-10-16T09:23:34;1.65;;;1.50;;
52854;SDS011;38719;51.418;7.286;2022-10-16T09:26:03;3.10;;;1.60;;
52854;SDS011;38719;51.418;7.286;2022-10-16T09:28:34;3.35;;;1.35;;
52854;SDS011;38719;51.418;7.286;2022-10-16T09:31:01;3.72;;;1.48;;
52854;SDS011;38719;51.418;7.286;2022-10-16T09:33:29;4.25;;;1.67;;
52854;SDS011;38719;51.418;7.286;2022-10-16T09:36:02;3.35;;;1.60;;
52854;SDS011;38719;51.418;7.286;2022-10-16T09:38:33;3.20;;;1.58;;
52854;SDS011;38719;51.418;7.286;2022-10-16T09:41:02;3.00;;;1.75;;
52854;SDS011;38719;51.418;7.286;2022-10-16T09:43:41;1.70;;;1.50;;
52854;SDS011;38719;51.418;7.286;2022-10-16T09:46:21;8.82;;;1.98;;
52854;SDS011;38719;51.418;7.286;2022-10-16T09:48:51;1.60;;;1.33;;
52854;SDS011;38719;51.418;7.286;2022-10-16T09:51:23;2.25;;;1.77;;
52854;SDS011;38719;51.418;7.286;2022-10-16T09:53:57;1.48;;;1.38;;
52854;SDS011;38719;51.418;7.286;2022-10-16T09:56:27;10.60;;;1.83;;
52854;SDS011;38719;51.418;7.286;2022-10-16T10:02:51;4.57;;;1.50;;
52854;SDS011;38719;51.418;7.286;2022-10-16T10:05:26;4.03;;;1.50;;
52854;SDS011;38719;51.418;7.286;2022-10-16T10:07:56;7.63;;;1.75;;
52854;SDS011;38719;51.418;7.286;2022-10-16T10:10:26;4.07;;;2.00;;
52854;SDS011;38719;51.418;7.286;2022-10-16T10:12:55;3.53;;;1.35;;
52854;SDS011;38719;51.418;7.286;2022-10-16T10:15:24;4.68;;;1.70;;
52854;SDS011;38719;51.418;7.286;2022-10-16T10:17:54;2.65;;;1.65;;
52854;SDS011;38719;51.418;7.286;2022-10-16T10:20:25;3.67;;;1.48;;
52854;SDS011;38719;51.418;7.286;2022-10-16T10:22:54;1.60;;;1.50;;
52854;SDS011;38719;51.418;7.286;2022-10-16T10:25:28;6.00;;;1.55;;
52854;SDS011;38719;51.418;7.286;2022-10-16T10:28:14;1.63;;;1.10;;
52854;SDS011;38719;51.418;7.286;2022-10-16T10:30:51;3.40;;;1.30;;
52854;SDS011;38719;51.418;7.286;2022-10-16T10:33:33;3.58;;;1.27;;
52854;SDS011;38719;51.418;7.286;2022-10-16T10:36:12;2.55;;;1.88;;
52854;SDS011;38719;51.418;7.286;2022-10-16T10:38:49;2.10;;;1.30;;
52854;SDS011;38719;51.418;7.286;2022-10-16T10:41:29;2.25;;;1.40;;
52854;SDS011;38719;51.418;7.286;2022-10-16T10:44:11;1.67;;;1.58;;
52854;SDS011;38719;51.418;7.286;2022-10-16T10:46:55;2.63;;;1.20;;
52854;SDS011;38719;51.418;7.286;2022-10-16T10:49:29;1.85;;;1.70;;
52854;SDS011;38719;51.418;7.286;2022-10-16T10:52:13;1.13;;;1.02;;
52854;SDS011;38719;51.418;7.286;2022-10-16T10:54:59;6.25;;;1.45;;
52854;SDS011;38719;51.418;7.286;2022-10-16T10:57:37;7.55;;;1.45;;
52854;SDS011;38719;51.418;7.286;2022-10-16T11:00:13;3.67;;;1.42;;
52854;SDS011;38719;51.418;7.286;2022-10-16T11:02:50;3.30;;;1.08;;
52854;SDS011;38719;51.418;7.286;2022-10-16T11:05:44;3.85;;;1.40;;
52854;SDS011;38719;51.418;7.286;2022-10-16T11:08:19;1.00;;;1.00;;
52854;SDS011;38719;51.418;7.286;2022-10-16T11:10:54;3.58;;;1.10;;
52854;SDS011;38719;51.418;7.286;2022-10-16T11:13:28;2.40;;;1.20;;
52854;SDS011;38719;51.418;7.286;2022-10-16T11:16:17;2.70;;;1.20;;
52854;SDS011;38719;51.418;7.286;2022-10-16T11:18:54;3.17;;;1.35;;
52854;SDS011;38719;51.418;7.286;2022-10-16T11:21:30;4.90;;;1.40;;
52854;SDS011;38719;51.418;7.286;2022-10-16T11:24:05;1.67;;;1.40;;
52854;SDS011;38719;51.418;7.286;2022-10-16T11:26:42;2.45;;;1.30;;
52854;SDS011;38719;51.418;7.286;2022-10-16T11:29:12;4.18;;;1.65;;
52854;SDS011;38719;51.418;7.286;2022-10-16T11:31:48;5.32;;;1.27;;
52854;SDS011;38719;51.418;7.286;2022-10-16T11:34:28;4.13;;;1.30;;
52854;SDS011;38719;51.418;7.286;2022-10-16T11:41:36;5.13;;;1.58;;
52854;SDS011;38719;51.418;7.286;2022-10-16T11:49:37;3.85;;;1.95;;
52854;SDS011;38719;51.418;7.286;2022-10-16T12:04:15;3.55;;;1.40;;
52854;SDS011;38719;51.418;7.286;2022-10-16T12:07:45;8.02;;;1.40;;
52854;SDS011;38719;51.418;7.286;2022-10-16T12:10:18;2.92;;;1.40;;
52854;SDS011;38719;51.418;7.286;2022-10-16T12:12:52;5.03;;;1.20;;
52854;SDS011;38719;51.418;7.286;2022-10-16T12:15:22;3.45;;;0.95;;
52854;SDS011;38719;51.418;7.286;2022-10-16T12:18:20;5.60;;;1.10;;
52854;SDS011;38719;51.418;7.286;2022-10-16T12:20:55;7.35;;;1.35;;
52854;SDS011;38719;51.418;7.286;2022-10-16T12:23:25;0.98;;;0.90;;
52854;SDS011;38719;51.418;7.286;2022-10-16T12:25:54;2.95;;;1.08;;
52854;SDS011;38719;51.418;7.286;2022-10-16T12:28:26;2.90;;;1.20;;
52854;SDS011;38719;51.418;7.286;2022-10-16T12:30:56;5.57;;;1.33;;
52854;SDS011;38719;51.418;7.286;2022-10-16T12:33:25;2.63;;;1.00;;
52854;SDS011;38719;51.418;7.286;2022-10-16T12:35:56;0.75;;;0.70;;
52854;SDS011;38719;51.418;7.286;2022-10-16T12:38:26;2.00;;;1.05;;
52854;SDS011;38719;51.418;7.286;2022-10-16T12:40:56;2.05;;;1.00;;
52854;SDS011;38719;51.418;7.286;2022-10-16T12:43:36;1.10;;;0.90;;
52854;SDS011;38719;51.418;7.286;2022-10-16T12:46:19;1.20;;;1.10;;
52854;SDS011;38719;51.418;7.286;2022-10-16T12:49:20;1.98;;;1.08;;
52854;SDS011;38719;51.418;7.286;2022-10-16T12:51:53;2.33;;;1.02;;
52854;SDS011;38719;51.418;7.286;2022-10-16T12:54:22;3.72;;;1.50;;
52854;SDS011;38719;51.418;7.286;2022-10-16T12:57:01;1.38;;;1.10;;
52854;SDS011;38719;51.418;7.286;2022-10-16T12:59:54;1.50;;;1.05;;
52854;SDS011;38719;51.418;7.286;2022-10-16T13:02:36;2.75;;;1.00;;
52854;SDS011;38719;51.418;7.286;2022-10-16T13:05:18;2.63;;;0.90;;
52854;SDS011;38719;51.418;7.286;2022-10-16T13:07:58;1.50;;;1.00;;
52854;SDS011;38719;51.418;7.286;2022-10-16T13:10:44;4.30;;;1.38;;
52854;SDS011;38719;51.418;7.286;2022-10-16T13:13:24;3.28;;;1.00;;
52854;SDS011;38719;51.418;7.286;2022-10-16T13:16:09;2.33;;;1.25;;
52854;SDS011;38719;51.418;7.286;2022-10-16T13:18:48;3.05;;;1.08;;
52854;SDS011;38719;51.418;7.286;2022-10-16T13:21:31;1.88;;;1.00;;
52854;SDS011;38719;51.418;7.286;2022-10-16T13:24:10;2.67;;;1.25;;
52854;SDS011;38719;51.418;7.286;2022-10-16T13:26:48;1.95;;;1.30;;
52854;SDS011;38719;51.418;7.286;2022-10-16T13:29:20;1.00;;;1.00;;
52854;SDS011;38719;51.418;7.286;2022-10-16T13:31:49;2.00;;;1.10;;
52854;SDS011;38719;51.418;7.286;2022-10-16T13:34:17;2.03;;;0.82;;
52854;SDS011;38719;51.418;7.286;2022-10-16T13:36:48;5.95;;;1.50;;
52854;SDS011;38719;51.418;7.286;2022-10-16T13:39:22;2.55;;;1.20;;
52854;SDS011;38719;51.418;7.286;2022-10-16T13:41:58;3.45;;;1.02;;
52854;SDS011;38719;51.418;7.286;2022-10-16T13:44:35;10.52;;;1.35;;
52854;SDS011;38719;51.418;7.286;2022-10-16T13:47:12;2.58;;;1.23;;
52854;SDS011;38719;51.418;7.286;2022-10-16T13:49:42;4.35;;;1.45;;
52854;SDS011;38719;51.418;7.286;2022-10-16T13:52:16;3.80;;;1.15;;
52854;SDS011;38719;51.418;7.286;2022-10-16T13:54:49;6.20;;;1.42;;
52854;SDS011;38719;51.418;7.286;2022-10-16T13:57:18;2.22;;;1.17;;
52854;SDS011;38719;51.418;7.286;2022-10-16T14:02:22;3.47;;;1.30;;
52854;SDS011;38719;51.418;7.286;2022-10-16T14:04:54;1.63;;;1.02;;
52854;SDS011;38719;51.418;7.286;2022-10-16T14:07:24;1.40;;;1.13;;
52854;SDS011;38719;51.418;7.286;2022-10-16T14:09:55;7.63;;;1.63;;
52854;SDS011;38719;51.418;7.286;2022-10-16T14:12:23;3.72;;;1.27;;
52854;SDS011;38719;51.418;7.286;2022-10-16T14:14:54;4.95;;;1.48;;
52854;SDS011;38719;51.418;7.286;2022-10-16T14:17:23;4.93;;;1.58;;
52854;SDS011;38719;51.418;7.286;2022-10-16T14:19:53;2.17;;;1.30;;
52854;SDS011;38719;51.418;7.286;2022-10-16T14:22:29;3.00;;;1.50;;
52854;SDS011;38719;51.418;7.286;2022-10-16T14:25:00;3.88;;;1.48;;
52854;SDS011;38719;51.418;7.286;2022-10-16T14:27:30;3.38;;;1.35;;
52854;SDS011;38719;51.418;7.286;2022-10-16T14:30:10;1.85;;;1.13;;
52854;SDS011;38719;51.418;7.286;2022-10-16T14:32:41;1.48;;;1.20;;
52854;SDS011;38719;51.418;7.286;2022-10-16T14:35:23;3.63;;;1.33;;
52854;SDS011;38719;51.418;7.286;2022-10-16T14:37:55;1.50;;;1.40;;
52854;SDS011;38719;51.418;7.286;2022-10-16T14:40:26;2.85;;;1.50;;
52854;SDS011;38719;51.418;7.286;2022-10-16T14:42:56;2.33;;;1.50;;
52854;SDS011;38719;51.418;7.286;2022-10-16T14:45:24;3.28;;;1.83;;
52854;SDS011;38719;51.418;7.286;2022-10-16T14:47:55;4.95;;;1.75;;
52854;SDS011;38719;51.418;7.286;2022-10-16T14:50:25;4.75;;;2.08;;
52854;SDS011;38719;51.418;7.286;2022-10-16T14:52:52;2.10;;;1.60;;
52854;SDS011;38719;51.418;7.286;2022-10-16T14:55:20;2.80;;;1.80;;
52854;SDS011;38719;51.418;7.286;2022-10-16T14:57:54;4.82;;;1.75;;
52854;SDS011;38719;51.418;7.286;2022-10-16T15:00:26;4.32;;;1.90;;
52854;SDS011;38719;51.418;7.286;2022-10-16T15:02:54;3.95;;;1.75;;
52854;SDS011;38719;51.418;7.286;2022-10-16T15:05:22;6.40;;;2.05;;
52854;SDS011;38719;51.418;7.286;2022-10-16T15:07:51;3.08;;;1.85;;
52854;SDS011;38719;51.418;7.286;2022-10-16T15:10:21;4.85;;;2.10;;
52854;SDS011;38719;51.418;7.286;2022-10-16T15:12:50;6.38;;;1.90;;
52854;SDS011;38719;51.418;7.286;2022-10-16T15:15:25;5.65;;;1.70;;
52854;SDS011;38719;51.418;7.286;2022-10-16T15:17:59;7.32;;;1.67;;
52854;SDS011;38719;51.418;7.286;2022-10-16T15:20:29;10.60;;;1.42;;
52854;SDS011;38719;51.418;7.286;2022-10-16T15:22:59;1.42;;;1.17;;
52854;SDS011;38719;51.418;7.286;2022-10-16T15:25:30;14.40;;;1.95;;
52854;SDS011;38719;51.418;7.286;2022-10-16T15:28:00;4.82;;;1.90;;
52854;SDS011;38719;51.418;7.286;2022-10-16T15:30:31;4.13;;;1.45;;
52854;SDS011;38719;51.418;7.286;2022-10-16T15:32:59;10.90;;;2.17;;
52854;SDS011;38719;51.418;7.286;2022-10-16T15:35:26;5.43;;;1.90;;
52854;SDS011;38719;51.418;7.286;2022-10-16T15:37:54;7.90;;;1.88;;
52854;SDS011;38719;51.418;7.286;2022-10-16T15:40:22;4.43;;;1.38;;
52854;SDS011;38719;51.418;7.286;2022-10-16T15:42:50;10.27;;;2.33;;
52854;SDS011;38719;51.418;7.286;2022-10-16T15:45:17;11.18;;;1.85;;
52854;SDS011;38719;51.418;7.286;2022-10-16T15:47:47;10.27;;;2.20;;
52854;SDS011;38719;51.418;7.286;2022-10-16T15:50:15;5.68;;;2.05;;
52854;SDS011;38719;51.418;7.286;2022-10-16T15:52:43;9.05;;;1.90;;
52854;SDS011;38719;51.418;7.286;2022-10-16T15:55:12;2.55;;;1.70;;
52854;SDS011;38719;51.418;7.286;2022-10-16T15:57:41;2.13;;;1.60;;